createdAt,value
2022-11-12T05:43:01.591Z,0.1
2022-11-12T05:45:01.124Z,0.2
2022-11-12T05:46:01.123Z,0.3
2022-11-12T05:48:01.317Z,0.4
2022-11-12T05:49:01.113Z,0.5
2022-11-12T05:51:16.475Z,0.6
2022-11-12T05:52:01.109Z,0.7
2022-11-12T05:54:01.458Z,0.8
2022-11-12T05:55:01.118Z,0.9
2022-11-12T05:56:01.109Z,1.1
2022-11-12T05:57:01.118Z,1.2
2022-11-12T05:58:01.111Z,1.3
2022-11-12T05:59:01.441Z,1.5
2022-11-12T06:00:01.120Z,1.7
2022-11-12T06:01:01.113Z,1.9
2022-11-12T06:02:02.052Z,2.1
2022-11-12T06:03:01.137Z,2.3
2022-11-12T06:05:01.317Z,2.7
2022-11-12T06:06:01.097Z,3.1
2022-11-12T06:07:01.190Z,3.5
2022-11-12T06:08:01.132Z,4.2
2022-11-12T06:09:02.129Z,4.9
2022-11-12T06:10:01.320Z,5.9
2022-11-12T06:11:01.103Z,6.8
2022-11-12T06:12:01.107Z,7.7
2022-11-12T06:13:01.113Z,9.1
2022-11-12T06:14:01.096Z,10.5
2022-11-12T06:15:01.450Z,12.4
2022-11-12T06:16:01.103Z,14.3
2022-11-12T06:17:01.923Z,16.1
2022-11-12T06:18:01.102Z,19.3
2022-11-12T06:19:01.115Z,22.3
2022-11-12T06:20:01.557Z,26.9
2022-11-12T06:21:01.106Z,31.5
2022-11-12T06:22:01.108Z,36.1
2022-11-12T06:23:01.100Z,41.5
2022-11-12T06:24:01.102Z,46.9
2022-11-12T06:25:09.013Z,54.1
2022-11-12T06:26:01.103Z,61.2
2022-11-12T06:27:01.140Z,68.3
2022-11-12T06:28:01.111Z,78.1
2022-11-12T06:29:01.117Z,87.9
2022-11-12T06:30:01.309Z,102.9
2022-11-12T06:31:01.501Z,117.9
2022-11-12T06:32:01.600Z,132.9
2022-11-12T06:33:01.104Z,152.0
2022-11-12T06:34:01.102Z,171.1
2022-11-12T06:35:01.319Z,195.3
2022-11-12T06:36:01.108Z,219.6
2022-11-12T06:37:01.116Z,243.9
2022-11-12T06:38:01.109Z,280.7
2022-11-12T06:39:01.113Z,317.5
2022-11-12T06:40:01.313Z,359.3
2022-11-12T06:41:01.098Z,401.1
2022-11-12T06:42:01.121Z,442.9
2022-11-12T06:43:01.103Z,499.6
2022-11-12T06:44:01.106Z,556.3
2022-11-12T06:45:01.318Z,612.7
2022-11-12T06:46:01.102Z,669.0
2022-11-12T06:47:07.118Z,725.3
2022-11-12T06:48:01.125Z,791.8
2022-11-12T06:49:01.113Z,858.3
2022-11-12T06:50:01.384Z,937.7
2022-11-12T06:51:01.170Z,1017.2
2022-11-12T06:52:01.123Z,1096.7
2022-11-12T06:53:01.099Z,1179.8
2022-11-12T06:54:01.113Z,1262.9
2022-11-12T06:55:01.320Z,1377.1
2022-11-12T06:56:01.107Z,1491.3
2022-11-12T06:57:01.592Z,1605.5
2022-11-12T06:58:01.121Z,1700.8
2022-11-12T06:59:01.179Z,1796.1
2022-11-12T07:00:02.607Z,1879.8
2022-11-12T07:01:01.113Z,1963.5
2022-11-12T07:02:01.163Z,2047.3
2022-11-12T07:03:01.262Z,2138.9
2022-11-12T07:04:01.113Z,2230.5
2022-11-12T07:05:01.382Z,2371.1
2022-11-12T07:06:01.180Z,2511.7
2022-11-12T07:07:01.180Z,2652.3
2022-11-12T07:08:01.113Z,2776.9
2022-11-12T07:09:01.120Z,2901.5
2022-11-12T07:10:01.316Z,3003.3
2022-11-12T07:11:01.115Z,3105.2
2022-11-12T07:12:02.134Z,3207.1
2022-11-12T07:13:01.120Z,3346.8
2022-11-12T07:14:01.117Z,3486.5
2022-11-12T07:15:01.352Z,3669.9
2022-11-12T07:16:01.178Z,3853.2
2022-11-12T07:17:01.732Z,4036.5
2022-11-12T07:18:01.180Z,4233.6
2022-11-12T07:19:01.235Z,4430.7
2022-11-12T07:20:03.795Z,4537.8
2022-11-12T07:21:01.151Z,4644.9
2022-11-12T07:22:02.152Z,4752.1
2022-11-12T07:23:01.129Z,4911.1
2022-11-12T07:24:01.115Z,5070.2
2022-11-12T07:25:01.324Z,5253.2
2022-11-12T07:26:01.112Z,5436.2
2022-11-12T07:27:01.121Z,5619.2
2022-11-12T07:28:01.116Z,5726.9
2022-11-12T07:29:01.123Z,5834.7
2022-11-12T07:30:01.337Z,5921.9
2022-11-12T07:31:01.108Z,6009.1
2022-11-12T07:32:03.045Z,6096.3
2022-11-12T07:33:01.114Z,6245.7
2022-11-12T07:34:01.115Z,6395.1
2022-11-12T07:35:01.450Z,6730.4
2022-11-12T07:36:01.114Z,7065.7
2022-11-12T07:37:01.544Z,7401.1
2022-11-12T07:38:01.109Z,7876.9
2022-11-12T07:39:01.114Z,8352.8
2022-11-12T07:40:01.335Z,8771.9
2022-11-12T07:41:01.110Z,9190.9
2022-11-12T07:42:01.131Z,9610.0
2022-11-12T07:44:01.237Z,10047.3
2022-11-12T07:45:01.309Z,10627.5
2022-11-12T07:46:03.617Z,11190.9
2022-11-12T07:47:01.100Z,11754.2
2022-11-12T07:48:01.113Z,12622.5
2022-11-12T07:49:01.183Z,13391.5
2022-11-12T07:50:01.335Z,14231.4
2022-11-12T07:51:01.297Z,14906.5
2022-11-12T07:52:01.104Z,15581.5
2022-11-12T07:53:01.928Z,16151.7
2022-11-12T07:54:01.105Z,16528.1
2022-11-12T07:55:01.305Z,16862.7
2022-11-12T07:56:01.107Z,17214.7
2022-11-12T07:57:01.133Z,17566.8
2022-11-12T07:58:01.607Z,17994.7
2022-11-12T07:59:01.105Z,18442.7
2022-11-12T08:00:03.176Z,18846.0
2022-11-12T08:01:01.096Z,19249.3
2022-11-12T08:02:01.106Z,19652.5
2022-11-12T08:03:01.374Z,19946.1
2022-11-12T08:04:01.108Z,20239.7
2022-11-12T08:05:01.309Z,20473.2
2022-11-12T08:06:01.107Z,20706.7
2022-11-12T08:07:01.340Z,20940.1
2022-11-12T08:08:01.223Z,21022.6
2022-11-12T08:09:06.116Z,21105.1
2022-11-12T08:10:01.311Z,21168.1
2022-11-12T08:11:01.102Z,21231.1
2022-11-12T08:12:01.122Z,21294.1
2022-11-12T08:13:01.920Z,21633.9
2022-11-12T08:14:01.107Z,21973.7
2022-11-12T08:15:01.345Z,22475.6
2022-11-12T08:16:01.110Z,22977.5
2022-11-12T08:17:01.106Z,23479.5
2022-11-12T08:18:01.126Z,23836.3
2022-11-12T08:19:01.107Z,24193.2
2022-11-12T08:20:01.345Z,24659.9
2022-11-12T08:21:01.106Z,25126.5
2022-11-12T08:22:01.255Z,25593.2
2022-11-12T08:23:01.869Z,26407.1
2022-11-12T08:24:01.110Z,27220.9
2022-11-12T08:25:01.359Z,27967.1
2022-11-12T08:26:01.112Z,28713.3
2022-11-12T08:27:01.104Z,29459.5
2022-11-12T08:28:01.117Z,29984.6
2022-11-12T08:29:05.397Z,30509.7
2022-11-12T08:30:01.336Z,31104.6
2022-11-12T08:31:01.119Z,31699.5
2022-11-12T08:32:01.108Z,32294.5
2022-11-12T08:33:01.152Z,33272.5
2022-11-12T08:34:01.106Z,34250.6
2022-11-12T08:35:01.314Z,35110.7
2022-11-12T08:36:01.113Z,35970.9
2022-11-12T08:37:01.120Z,36831.0
2022-11-12T08:38:01.927Z,37502.7
2022-11-12T08:39:01.230Z,38174.3
2022-11-12T08:40:07.553Z,38701.0
2022-11-12T08:41:01.144Z,39227.7
2022-11-12T08:42:01.115Z,39754.3
2022-11-12T08:43:01.128Z,39863.8
2022-11-12T08:44:07.258Z,39973.3
2022-11-12T08:45:01.836Z,39921.3
2022-11-12T08:46:01.116Z,39869.4
2022-11-12T08:47:01.117Z,39817.5
2022-11-12T08:48:01.608Z,39836.6
2022-11-12T08:49:01.122Z,39855.7
2022-11-12T08:51:01.284Z,39809.1
2022-11-12T08:52:01.107Z,39762.4
2022-11-12T08:53:01.115Z,39195.1
2022-11-12T08:54:01.109Z,38724.9
2022-11-12T08:55:01.223Z,38254.8
2022-11-12T08:56:01.325Z,38037.7
2022-11-12T08:57:01.111Z,37820.5
2022-11-12T08:58:01.109Z,37952.9
2022-11-12T08:59:05.031Z,38370.9
2022-11-12T09:00:01.113Z,38788.9
2022-11-12T09:01:01.314Z,39480.2
2022-11-12T09:02:01.157Z,40171.5
2022-11-12T09:03:01.945Z,40628.1
2022-11-12T09:04:01.113Z,40580.3
2022-11-12T09:05:01.104Z,40532.5
2022-11-12T09:06:16.124Z,40208.1
2022-11-12T09:07:01.363Z,39883.7
2022-11-12T09:08:01.192Z,40017.3
2022-11-12T09:09:01.110Z,40150.8
2022-11-12T09:10:01.099Z,40284.3
2022-11-12T09:11:01.226Z,40646.3
2022-11-12T09:12:04.617Z,41008.3
2022-11-12T09:13:01.120Z,41296.4
2022-11-12T09:14:01.149Z,41584.5
2022-11-12T09:15:23.239Z,41872.5
2022-11-12T09:16:01.098Z,41426.7
2022-11-12T09:17:01.388Z,40980.8
2022-11-12T09:18:01.547Z,40878.7
2022-11-12T09:19:01.119Z,40776.5
2022-11-12T09:20:01.119Z,40674.4
2022-11-12T09:21:01.112Z,40899.4
2022-11-12T09:22:01.344Z,41124.4
2022-11-12T09:23:01.123Z,41081.2
2022-11-12T09:24:01.126Z,41038.0
2022-11-12T09:25:01.118Z,40994.8
2022-11-12T09:26:01.126Z,40482.8
2022-11-12T09:27:01.440Z,39970.8
2022-11-12T09:28:01.146Z,39191.7
2022-11-12T09:29:01.117Z,38412.7
2022-11-12T09:30:01.125Z,37633.6
2022-11-12T09:31:01.121Z,37262.0
2022-11-12T09:32:01.321Z,36890.4
2022-11-12T09:33:01.937Z,36388.5
2022-11-12T09:34:01.126Z,35886.5
2022-11-12T09:35:01.147Z,35384.6
2022-11-12T09:36:01.188Z,34754.1
2022-11-12T09:37:01.331Z,34123.5
2022-11-12T09:38:01.134Z,34004.1
2022-11-12T09:39:01.119Z,33884.6
2022-11-12T09:40:01.119Z,33765.1
2022-11-12T09:41:01.116Z,34003.7
2022-11-12T09:42:02.212Z,34242.2
2022-11-12T09:43:01.262Z,34403.6
2022-11-12T09:44:01.136Z,34565.0
2022-11-12T09:45:01.138Z,34726.4
2022-11-12T09:46:21.867Z,34837.7
2022-11-12T09:47:01.270Z,34949.1
2022-11-12T09:48:01.607Z,35213.2
2022-11-12T09:49:01.111Z,35477.3
2022-11-12T09:50:01.115Z,35741.5
2022-11-12T09:51:01.117Z,36172.6
2022-11-12T09:52:01.320Z,36603.7
2022-11-12T09:53:01.143Z,36621.6
2022-11-12T09:55:01.104Z,36639.5
2022-11-12T09:56:01.117Z,36496.8
2022-11-12T09:57:01.328Z,36257.4
2022-11-12T09:58:01.121Z,36015.7
2022-11-12T09:59:01.233Z,35842.7
2022-11-12T10:00:01.117Z,35669.7
2022-11-12T10:01:01.113Z,35850.8
2022-11-12T10:02:01.373Z,35966.2
2022-11-12T10:03:01.109Z,35896.4
2022-11-12T10:04:01.926Z,35695.1
2022-11-12T10:05:01.135Z,35493.9
2022-11-12T10:06:01.122Z,35218.9
2022-11-12T10:07:01.362Z,34918.2
2022-11-12T10:08:01.114Z,34547.9
2022-11-12T10:09:01.114Z,34410.8
2022-11-12T10:10:01.116Z,34273.7
2022-11-12T10:11:01.121Z,34453.4
2022-11-12T10:12:04.171Z,34633.1
2022-11-12T10:13:01.105Z,34782.5
2022-11-12T10:14:01.129Z,34931.8
2022-11-12T10:15:01.228Z,35081.1
2022-11-12T10:16:01.104Z,34910.1
2022-11-12T10:17:01.341Z,34739.0
2022-11-12T10:18:01.103Z,34682.6
2022-11-12T10:19:01.608Z,34626.2
2022-11-12T10:20:01.112Z,34569.8
2022-11-12T10:21:01.177Z,34637.3
2022-11-12T10:22:01.593Z,34704.7
2022-11-12T10:23:01.107Z,34874.5
2022-11-12T10:24:01.125Z,35044.3
2022-11-12T10:25:01.106Z,35214.1
2022-11-12T10:26:01.198Z,35151.1
2022-11-12T10:27:01.315Z,35088.1
2022-11-12T10:28:01.112Z,35059.5
2022-11-12T10:29:01.309Z,35030.9
2022-11-12T10:30:01.113Z,35002.3
2022-11-12T10:31:01.238Z,34940.3
2022-11-12T10:32:01.316Z,34878.2
2022-11-12T10:33:01.111Z,34897.9
2022-11-12T10:34:01.990Z,34917.5
2022-11-12T10:35:01.118Z,34937.2
2022-11-12T10:36:01.115Z,34842.2
2022-11-12T10:37:01.325Z,34747.2
2022-11-12T10:38:01.121Z,34775.9
2022-11-12T10:39:01.123Z,34804.5
2022-11-12T10:40:01.114Z,34833.2
2022-11-12T10:41:01.119Z,34854.8
2022-11-12T10:42:01.324Z,34876.4
2022-11-12T10:43:01.118Z,34745.6
2022-11-12T10:44:01.134Z,34614.8
2022-11-12T10:45:01.164Z,34484.0
2022-11-12T10:46:01.111Z,34484.1
2022-11-12T10:48:01.437Z,34480.4
2022-11-12T10:49:01.673Z,34476.7
2022-11-12T10:51:01.106Z,34379.7
2022-11-12T10:52:01.104Z,34347.1
2022-11-12T10:53:01.313Z,34383.5
2022-11-12T10:54:01.109Z,34263.5
2022-11-12T10:55:01.121Z,34143.4
2022-11-12T10:56:06.120Z,34024.0
2022-11-12T10:57:01.103Z,33988.1
2022-11-12T10:58:01.312Z,33979.6
2022-11-12T10:59:01.103Z,34121.7
2022-11-12T11:00:02.003Z,34263.9
2022-11-12T11:01:05.994Z,34147.7
2022-11-12T11:02:01.254Z,33900.5
2022-11-12T11:03:01.311Z,33668.3
2022-11-12T11:04:01.313Z,33428.7
2022-11-12T11:05:01.119Z,33189.1
2022-11-12T11:06:01.299Z,33160.6
2022-11-12T11:07:01.169Z,33132.1
2022-11-12T11:08:16.118Z,33011.7
2022-11-12T11:09:01.241Z,32891.3
2022-11-12T11:10:01.126Z,32770.9
2022-11-12T11:11:01.144Z,32711.9
2022-11-12T11:12:01.115Z,32653.0
2022-11-12T11:13:01.107Z,32563.7
2022-11-12T11:14:01.309Z,32474.3
2022-11-12T11:16:01.132Z,32461.9
2022-11-12T11:17:01.100Z,32538.9
2022-11-12T11:18:01.106Z,32671.3
2022-11-12T11:19:01.442Z,32803.7
2022-11-12T11:20:01.234Z,32936.1
2022-11-12T11:21:01.143Z,32964.2
2022-11-12T11:22:01.108Z,32992.3
2022-11-12T11:23:01.118Z,33115.3
2022-11-12T11:24:11.514Z,33238.3
2022-11-12T11:25:01.123Z,33361.3
2022-11-12T11:26:01.148Z,33386.6
2022-11-12T11:27:01.101Z,33411.9
2022-11-12T11:28:01.106Z,33448.2
2022-11-12T11:29:01.315Z,33484.5
2022-11-12T11:31:01.145Z,33559.6
2022-11-12T11:32:01.113Z,33598.3
2022-11-12T11:33:01.106Z,33704.9
2022-11-12T11:34:01.320Z,33811.5
2022-11-12T11:35:01.120Z,33918.1
2022-11-12T11:36:01.264Z,34107.6
2022-11-12T11:37:01.114Z,34297.1
2022-11-12T11:38:01.114Z,34239.9
2022-11-12T11:39:06.322Z,34182.7
2022-11-12T11:40:01.126Z,34125.5
2022-11-12T11:41:01.143Z,33916.4
2022-11-12T11:42:01.118Z,33707.3
2022-11-12T11:43:01.114Z,33415.2
2022-11-12T11:44:01.353Z,33123.1
2022-11-12T11:45:01.767Z,32830.9
2022-11-12T11:46:01.165Z,32665.9
2022-11-12T11:47:01.395Z,32500.9
2022-11-12T11:48:02.399Z,32270.7
2022-11-12T11:49:01.328Z,32040.5
2022-11-12T11:50:01.128Z,31810.3
2022-11-12T11:51:01.379Z,31443.1
2022-11-12T11:52:01.238Z,31075.9
2022-11-12T11:53:01.108Z,30932.5
2022-11-12T11:54:01.319Z,30789.0
2022-11-12T11:55:01.244Z,30645.5
2022-11-12T11:56:01.143Z,30609.5
2022-11-12T11:57:01.112Z,30573.5
2022-11-12T11:58:01.126Z,30658.9
2022-11-12T11:59:01.377Z,30744.3
2022-11-12T12:01:01.144Z,30796.5
2022-11-12T12:02:01.106Z,30811.1
2022-11-12T12:03:01.103Z,30862.6
2022-11-12T12:04:01.137Z,30841.0
2022-11-12T12:05:01.321Z,30819.4
2022-11-12T12:06:01.149Z,30761.2
2022-11-12T12:07:01.160Z,30743.6
2022-11-12T12:08:01.223Z,30677.5
2022-11-12T12:09:01.119Z,30562.3
2022-11-12T12:10:04.910Z,30447.2
2022-11-12T12:11:07.877Z,30315.7
2022-11-12T12:12:01.106Z,30264.3
2022-11-12T12:13:01.102Z,30340.3
2022-11-12T12:14:01.102Z,30369.9
2022-11-12T12:16:01.132Z,30405.1
2022-11-12T12:17:01.105Z,30410.5
2022-11-12T12:18:01.112Z,30374.5
2022-11-12T12:19:01.107Z,30338.4
2022-11-12T12:20:01.358Z,30302.3
2022-11-12T12:21:01.132Z,30438.9
2022-11-12T12:22:01.113Z,30575.5
2022-11-12T12:23:01.100Z,30945.3
2022-11-12T12:24:01.230Z,31315.0
2022-11-12T12:25:09.230Z,31684.7
2022-11-12T12:26:01.155Z,31976.3
2022-11-12T12:27:01.104Z,32267.9
2022-11-12T12:28:01.102Z,32469.8
2022-11-12T12:29:01.122Z,32671.7
2022-11-12T12:30:02.207Z,32873.5
2022-11-12T12:31:02.168Z,33005.5
2022-11-12T12:32:01.112Z,33137.5
2022-11-12T12:33:01.113Z,33289.1
2022-11-12T12:34:01.348Z,33440.6
2022-11-12T12:36:01.149Z,33741.8
2022-11-12T12:37:01.108Z,33891.5
2022-11-12T12:38:01.106Z,33761.4
2022-11-12T12:39:01.119Z,33631.3
2022-11-12T12:40:01.442Z,33501.3
2022-11-12T12:41:01.135Z,33384.3
2022-11-12T12:42:01.110Z,33267.3
2022-11-12T12:43:01.116Z,33120.3
2022-11-12T12:44:01.116Z,32973.4
2022-11-12T12:46:01.145Z,32989.0
2022-11-12T12:47:01.108Z,33151.5
2022-11-12T12:48:06.218Z,33348.9
2022-11-12T12:49:01.112Z,33546.2
2022-11-12T12:50:01.320Z,33743.5
2022-11-12T12:51:01.541Z,33601.1
2022-11-12T12:52:01.119Z,33458.7
2022-11-12T12:53:01.113Z,33414.7
2022-11-12T12:54:01.119Z,33370.6
2022-11-12T12:55:01.333Z,33326.5
2022-11-12T12:56:01.268Z,33441.1
2022-11-12T12:57:01.116Z,33555.7
2022-11-12T12:58:01.109Z,33811.8
2022-11-12T12:59:01.120Z,34067.9
2022-11-12T13:00:04.284Z,34323.9
2022-11-12T13:01:01.187Z,34408.9
2022-11-12T13:02:01.119Z,34493.8
2022-11-12T13:03:01.115Z,34353.7
2022-11-12T13:05:01.322Z,34213.5
2022-11-12T13:06:01.133Z,33972.5
2022-11-12T13:07:01.167Z,33937.1
2022-11-12T13:08:01.108Z,33822.3
2022-11-12T13:09:01.099Z,33704.4
2022-11-12T13:11:01.136Z,33365.1
2022-11-12T13:12:01.240Z,33066.4
2022-11-12T13:13:01.101Z,32846.5
2022-11-12T13:14:01.103Z,32477.3
2022-11-12T13:15:01.744Z,32108.1
2022-11-12T13:16:01.132Z,31558.9
2022-11-12T13:17:01.102Z,30998.7
2022-11-12T13:18:01.101Z,30043.6
2022-11-12T13:19:01.104Z,29263.9
2022-11-12T13:20:01.550Z,28484.1
2022-11-12T13:21:01.113Z,27687.9
2022-11-12T13:22:01.107Z,26891.7
2022-11-12T13:23:01.105Z,25989.0
2022-11-12T13:24:01.172Z,25086.3
2022-11-12T13:26:01.106Z,23388.1
2022-11-12T13:27:01.102Z,22592.6
2022-11-12T13:28:01.223Z,21641.7
2022-11-12T13:29:01.109Z,20690.9
2022-11-12T13:31:01.131Z,18809.8
2022-11-12T13:32:01.100Z,17879.6
2022-11-12T13:33:01.104Z,17255.6
2022-11-12T13:34:01.098Z,16631.6
2022-11-12T13:36:01.125Z,15518.9
2022-11-12T13:37:01.102Z,15030.1
2022-11-12T13:38:01.102Z,14807.5
2022-11-12T13:39:03.771Z,14584.9
2022-11-12T13:40:01.324Z,14362.3
2022-11-12T13:41:01.137Z,14141.8
2022-11-12T13:42:01.107Z,13921.3
2022-11-12T13:43:01.112Z,13801.9
2022-11-12T13:44:01.285Z,13682.6
2022-11-12T13:45:02.200Z,13563.3
2022-11-12T13:46:01.135Z,13587.8
2022-11-12T13:47:01.128Z,13612.3
2022-11-12T13:48:01.105Z,13785.3
2022-11-12T13:49:01.105Z,13958.3
2022-11-12T13:50:01.324Z,14131.3
2022-11-12T13:51:01.415Z,14321.1
2022-11-12T13:52:03.431Z,14510.9
2022-11-12T13:53:01.106Z,14592.1
2022-11-12T13:54:01.104Z,14673.2
2022-11-12T13:56:01.151Z,14844.1
2022-11-12T13:57:01.112Z,14933.9
2022-11-12T13:58:01.165Z,14958.1
2022-11-12T13:59:01.121Z,14982.2
2022-11-12T14:01:01.194Z,15042.8
2022-11-12T14:02:01.108Z,15079.3
2022-11-12T14:03:01.113Z,15004.3
2022-11-12T14:04:01.116Z,14929.4
2022-11-12T14:05:01.324Z,14854.5
2022-11-12T14:06:01.156Z,14751.1
2022-11-12T14:07:01.186Z,14647.7
2022-11-12T14:08:01.110Z,14500.7
2022-11-12T14:09:01.107Z,14353.8
2022-11-12T14:10:16.156Z,14206.9
2022-11-12T14:11:01.359Z,13942.9
2022-11-12T14:12:06.099Z,13678.9
2022-11-12T14:13:01.122Z,13445.0
2022-11-12T14:14:01.114Z,13211.1
2022-11-12T14:15:01.888Z,12977.3
2022-11-12T14:16:01.518Z,12825.4
2022-11-12T14:17:01.114Z,12673.5
2022-11-12T14:18:01.145Z,12540.3
2022-11-12T14:19:01.113Z,12407.0
2022-11-12T14:20:01.952Z,12273.7
2022-11-12T14:21:06.428Z,12047.6
2022-11-12T14:22:01.109Z,11821.5
2022-11-12T14:23:01.118Z,11604.5
2022-11-12T14:24:01.114Z,11387.6
2022-11-12T14:25:01.118Z,11170.7
2022-11-12T14:26:01.326Z,11041.9
2022-11-12T14:27:01.118Z,10913.1
2022-11-12T14:28:01.119Z,10821.3
2022-11-12T14:29:01.127Z,10729.5
2022-11-12T14:30:01.560Z,10637.7
2022-11-12T14:31:07.251Z,10410.1
2022-11-12T14:32:01.128Z,10182.6
2022-11-12T14:33:01.120Z,9900.9
2022-11-12T14:35:01.858Z,9619.1
2022-11-12T14:36:01.369Z,9289.9
2022-11-12T14:37:01.106Z,9047.2
2022-11-12T14:38:06.107Z,8762.8
2022-11-12T14:39:01.099Z,8541.1
2022-11-12T14:40:01.109Z,8319.3
2022-11-12T14:41:01.371Z,8074.1
2022-11-12T14:42:01.147Z,7843.3
2022-11-12T14:43:01.420Z,7592.0
2022-11-12T14:44:12.500Z,7314.7
2022-11-12T14:45:01.673Z,7037.3
2022-11-12T14:46:01.303Z,6764.4
2022-11-12T14:47:01.238Z,6548.3
2022-11-12T14:48:01.109Z,6305.9
2022-11-12T14:49:01.105Z,6150.7
2022-11-12T14:50:01.126Z,5995.5
2022-11-12T14:51:01.574Z,5876.3
2022-11-12T14:52:01.127Z,5757.1
2022-11-12T14:53:01.113Z,5665.2
2022-11-12T14:54:01.107Z,5573.3
2022-11-12T14:55:01.114Z,5481.3
2022-11-12T14:56:01.358Z,5395.9
2022-11-12T14:57:01.112Z,5310.5
2022-11-12T14:58:01.110Z,5220.9
2022-11-12T14:59:01.359Z,5131.2
2022-11-12T15:01:02.280Z,4948.4
2022-11-12T15:02:27.078Z,4855.3
2022-11-12T15:03:01.347Z,4789.7
2022-11-12T15:04:01.141Z,4724.1
2022-11-12T15:05:02.834Z,4658.5
2022-11-12T15:06:01.429Z,4563.0
2022-11-12T15:07:01.169Z,4467.5
2022-11-12T15:08:01.121Z,4378.8
2022-11-12T15:09:01.114Z,4290.1
2022-11-12T15:10:01.123Z,4201.3
2022-11-12T15:11:01.351Z,4124.7
2022-11-12T15:12:01.106Z,4048.0
2022-11-12T15:13:01.115Z,3984.5
2022-11-12T15:14:01.195Z,3921.1
2022-11-12T15:15:01.744Z,3857.6
2022-11-12T15:16:01.340Z,3765.1
2022-11-12T15:17:01.119Z,3672.5
2022-11-12T15:18:01.122Z,3540.4
2022-11-12T15:19:01.231Z,3408.3
2022-11-12T15:21:01.313Z,3250.8
2022-11-12T15:22:01.106Z,3134.7
2022-11-12T15:23:01.121Z,3002.1
2022-11-12T15:24:01.170Z,2877.3
2022-11-12T15:25:01.168Z,2752.4
2022-11-12T15:26:01.320Z,2611.7
2022-11-12T15:27:02.134Z,2475.9
2022-11-12T15:28:01.139Z,2330.7
2022-11-12T15:29:01.102Z,2197.0
2022-11-12T15:30:02.303Z,2063.3
2022-11-12T15:31:01.319Z,1921.3
2022-11-12T15:32:01.123Z,1807.5
2022-11-12T15:33:01.113Z,1681.7
2022-11-12T15:34:01.145Z,1594.4
2022-11-12T15:35:01.242Z,1507.1
2022-11-12T15:36:01.760Z,1433.1
2022-11-12T15:37:01.111Z,1359.1
2022-11-12T15:38:01.115Z,1289.3
2022-11-12T15:39:01.106Z,1219.5
2022-11-12T15:40:01.139Z,1149.7
2022-11-12T15:41:01.315Z,1082.5
2022-11-12T15:42:01.101Z,1015.3
2022-11-12T15:43:01.103Z,946.2
2022-11-12T15:44:01.112Z,877.1
2022-11-12T15:46:01.323Z,740.0
2022-11-12T15:47:01.113Z,671.9
2022-11-12T15:48:01.117Z,611.5
2022-11-12T15:49:01.117Z,551.1
2022-11-12T15:50:01.193Z,490.7
2022-11-12T15:51:06.448Z,438.0
2022-11-12T15:52:01.473Z,385.3
2022-11-12T15:53:01.112Z,341.4
2022-11-12T15:54:01.122Z,297.5
2022-11-12T15:55:01.123Z,253.7
2022-11-12T15:56:01.314Z,221.1
2022-11-12T15:57:01.151Z,188.6
2022-11-12T15:58:01.110Z,166.3
2022-11-12T15:59:01.116Z,143.9
2022-11-12T16:01:01.354Z,105.9
2022-11-12T16:02:01.154Z,90.3
2022-11-12T16:03:01.115Z,78.3
2022-11-12T16:04:01.123Z,66.3
2022-11-12T16:05:01.121Z,54.3
2022-11-12T16:06:05.647Z,46.2
2022-11-12T16:07:01.366Z,38.1
2022-11-12T16:08:01.112Z,33.4
2022-11-12T16:09:01.113Z,28.7
2022-11-12T16:10:01.124Z,23.9
2022-11-12T16:11:01.320Z,20.9
2022-11-12T16:12:01.151Z,17.8
2022-11-12T16:13:01.118Z,15.7
2022-11-12T16:14:01.114Z,13.7
2022-11-12T16:16:01.361Z,10.1
2022-11-12T16:17:01.149Z,8.7
2022-11-12T16:18:01.132Z,7.7
2022-11-12T16:19:01.108Z,6.7
2022-11-12T16:20:01.128Z,5.7
2022-11-12T16:21:01.325Z,5.0
2022-11-12T16:22:01.150Z,4.3
2022-11-12T16:23:01.227Z,3.8
2022-11-12T16:24:01.119Z,3.3
2022-11-12T16:26:01.327Z,2.4
2022-11-12T16:27:01.114Z,2.1
2022-11-12T16:28:01.117Z,1.9
2022-11-12T16:29:01.121Z,1.7
2022-11-12T16:31:11.343Z,1.3
2022-11-12T16:32:01.112Z,1.1
2022-11-12T16:33:01.116Z,0.9
2022-11-12T16:34:06.112Z,0.8
2022-11-12T16:35:01.620Z,0.7
2022-11-12T16:37:01.373Z,0.6
2022-11-12T16:38:01.101Z,0.5
2022-11-12T16:40:01.217Z,0.4
2022-11-12T16:41:02.236Z,0.3
2022-11-12T16:43:01.444Z,0.2
2022-11-12T16:44:01.107Z,0.1
2022-11-12T16:45:01.484Z,0.1
